sensor_id;sensor_type;location;lat;lon;timestamp;pressure;altitude;pressure_sealevel;temperature;humidity
24610;BME280;12758;47.890;11.694;2023-12-04T00:00:44;93871.03;;;-2.53;100.00
24610;BME280;12758;47.890;11.694;2023-12-04T00:03:10;93869.22;;;-2.48;100.00
24610;BME280;12758;47.890;11.694;2023-12-04T00:05:36;93872.53;;;-2.41;100.00
24610;BME280;12758;47.890;11.694;2023-12-04T00:08:02;93865.66;;;-2.37;100.00
24610;BME280;12758;47.890;11.694;2023-12-04T00:10:28;93868.84;;;-2.35;100.00
24610;BME280;12758;47.890;11.694;2023-12-04T00:12:54;93855.84;;;-2.36;100.00
24610;BME280;12758;47.890;11.694;2023-12-04T00:15:20;93849.72;;;-2.37;100.00
24610;BME280;12758;47.890;11.694;2023-12-04T00:17:46;93842.78;;;-2.38;100.00
24610;BME280;12758;47.890;11.694;2023-12-04T00:20:12;93848.09;;;-2.38;100.00
24610;BME280;12758;47.890;11.694;2023-12-04T00:22:38;93844.41;;;-2.37;100.00
24610;BME280;12758;47.890;11.694;2023-12-04T00:25:06;93843.84;;;-2.39;100.00
24610;BME280;12758;47.890;11.694;2023-12-04T00:27:32;93842.28;;;-2.35;100.00
24610;BME280;12758;47.890;11.694;2023-12-04T00:29:58;93839.88;;;-2.36;100.00
24610;BME280;12758;47.890;11.694;2023-12-04T00:32:24;93837.47;;;-2.38;100.00
24610;BME280;12758;47.890;11.694;2023-12-04T00:34:50;93831.91;;;-2.36;100.00
24610;BME280;12758;47.890;11.694;2023-12-04T00:37:16;93840.38;;;-2.39;100.00
24610;BME280;12758;47.890;11.694;2023-12-04T00:39:42;93834.75;;;-2.43;100.00
24610;BME280;12758;47.890;11.694;2023-12-04T00:42:08;93838.53;;;-2.39;100.00
24610;BME280;12758;47.890;11.694;2023-12-04T00:44:34;93839.09;;;-2.37;100.00
24610;BME280;12758;47.890;11.694;2023-12-04T00:47:00;93841.19;;;-2.39;100.00
24610;BME280;12758;47.890;11.694;2023-12-04T00:49:27;93837.47;;;-2.38;100.00
24610;BME280;12758;47.890;11.694;2023-12-04T00:51:53;93830.84;;;-2.35;100.00
24610;BME280;12758;47.890;11.694;2023-12-04T00:54:19;93824.16;;;-2.38;100.00
24610;BME280;12758;47.890;11.694;2023-12-04T00:56:45;93835.88;;;-2.39;100.00
24610;BME280;12758;47.890;11.694;2023-12-04T00:59:11;93819.31;;;-2.46;100.00
24610;BME280;12758;47.890;11.694;2023-12-04T01:01:37;93820.91;;;-2.45;100.00
24610;BME280;12758;47.890;11.694;2023-12-04T01:04:03;93820.91;;;-2.45;100.00
24610;BME280;12758;47.890;11.694;2023-12-04T01:06:29;93822.53;;;-2.44;100.00
24610;BME280;12758;47.890;11.694;2023-12-04T01:08:56;93821.41;;;-2.48;100.00
24610;BME280;12758;47.890;11.694;2023-12-04T01:11:23;93826.72;;;-2.48;100.00
24610;BME280;12758;47.890;11.694;2023-12-04T01:13:49;93824.63;;;-2.46;100.00
24610;BME280;12758;47.890;11.694;2023-12-04T01:16:15;93826.72;;;-2.48;100.00
24610;BME280;12758;47.890;11.694;2023-12-04T01:18:42;93822.47;;;-2.49;100.00
24610;BME280;12758;47.890;11.694;2023-12-04T01:21:08;93816.09;;;-2.48;100.00
24610;BME280;12758;47.890;11.694;2023-12-04T01:23:34;93817.72;;;-2.47;100.00
24610;BME280;12758;47.890;11.694;2023-12-04T01:26:01;93814.50;;;-2.49;100.00
24610;BME280;12758;47.890;11.694;2023-12-04T01:28:27;93818.25;;;-2.45;100.00
24610;BME280;12758;47.890;11.694;2023-12-04T01:30:53;93818.22;;;-2.50;100.00
24610;BME280;12758;47.890;11.694;2023-12-04T01:33:19;93821.09;;;-2.51;100.00
24610;BME280;12758;47.890;11.694;2023-12-04T01:35:45;93816.28;;;-2.54;100.00
24610;BME280;12758;47.890;11.694;2023-12-04T01:38:10;93808.56;;;-2.56;100.00
24610;BME280;12758;47.890;11.694;2023-12-04T01:40:37;93797.16;;;-2.56;100.00
24610;BME280;12758;47.890;11.694;2023-12-04T01:43:03;93800.34;;;-2.54;100.00
24610;BME280;12758;47.890;11.694;2023-12-04T01:45:29;93791.56;;;-2.55;100.00
24610;BME280;12758;47.890;11.694;2023-12-04T01:47:55;93792.63;;;-2.56;100.00
24610;BME280;12758;47.890;11.694;2023-12-04T01:50:21;93791.50;;;-2.60;100.00
24610;BME280;12758;47.890;11.694;2023-12-04T01:52:48;93781.69;;;-2.60;100.00
24610;BME280;12758;47.890;11.694;2023-12-04T01:55:15;93778.78;;;-2.58;100.00
24610;BME280;12758;47.890;11.694;2023-12-04T01:57:41;93776.38;;;-2.60;100.00
24610;BME280;12758;47.890;11.694;2023-12-04T02:00:09;93769.22;;;-2.59;100.00
24610;BME280;12758;47.890;11.694;2023-12-04T02:02:37;93768.66;;;-2.61;100.00
24610;BME280;12758;47.890;11.694;2023-12-04T02:05:03;93763.59;;;-2.63;100.00
24610;BME280;12758;47.890;11.694;2023-12-04T02:07:30;93759.63;;;-2.60;100.00
24610;BME280;12758;47.890;11.694;2023-12-04T02:09:57;93760.44;;;-2.60;100.00
24610;BME280;12758;47.890;11.694;2023-12-04T02:12:23;93754.31;;;-2.60;100.00
24610;BME280;12758;47.890;11.694;2023-12-04T02:14:50;93748.19;;;-2.61;100.00
24610;BME280;12758;47.890;11.694;2023-12-04T02:17:17;93742.66;;;-2.59;100.00
24610;BME280;12758;47.890;11.694;2023-12-04T02:19:43;93746.59;;;-2.62;100.00
24610;BME280;12758;47.890;11.694;2023-12-04T02:22:09;93742.59;;;-2.64;100.00
24610;BME280;12758;47.890;11.694;2023-12-04T02:24:35;93738.34;;;-2.65;100.00
24610;BME280;12758;47.890;11.694;2023-12-04T02:27:04;93723.47;;;-2.66;100.00
24610;BME280;12758;47.890;11.694;2023-12-04T02:29:39;93722.63;;;-2.67;100.00
24610;BME280;12758;47.890;11.694;2023-12-04T02:32:06;93722.31;;;-2.70;100.00
24610;BME280;12758;47.890;11.694;2023-12-04T02:34:34;93719.44;;;-2.69;100.00
24610;BME280;12758;47.890;11.694;2023-12-04T02:37:01;93722.31;;;-2.70;100.00
24610;BME280;12758;47.890;11.694;2023-12-04T02:39:28;93718.06;;;-2.71;100.00
24610;BME280;12758;47.890;11.694;2023-12-04T02:41:55;93704.28;;;-2.68;100.00
24610;BME280;12758;47.890;11.694;2023-12-04T02:44:21;93704.78;;;-2.71;100.00
24610;BME280;12758;47.890;11.694;2023-12-04T02:46:46;93709.53;;;-2.73;100.00
24610;BME280;12758;47.890;11.694;2023-12-04T02:49:12;93705.28;;;-2.74;100.00
24610;BME280;12758;47.890;11.694;2023-12-04T02:51:40;93708.75;;;-2.74;100.00
24610;BME280;12758;47.890;11.694;2023-12-04T02:54:06;93708.00;;;-2.69;100.00
24610;BME280;12758;47.890;11.694;2023-12-04T02:56:32;93702.72;;;-2.69;100.00
24610;BME280;12758;47.890;11.694;2023-12-04T02:58:59;93695.47;;;-2.74;100.00
24610;BME280;12758;47.890;11.694;2023-12-04T03:01:25;93691.16;;;-2.80;100.00
24610;BME280;12758;47.890;11.694;2023-12-04T03:03:50;93689.84;;;-2.77;100.00
24610;BME280;12758;47.890;11.694;2023-12-04T03:06:16;93682.94;;;-2.78;100.00
24610;BME280;12758;47.890;11.694;2023-12-04T03:08:42;93681.31;;;-2.79;100.00
24610;BME280;12758;47.890;11.694;2023-12-04T03:11:08;93673.34;;;-2.79;100.00
24610;BME280;12758;47.890;11.694;2023-12-04T03:13:34;93669.09;;;-2.81;100.00
24610;BME280;12758;47.890;11.694;2023-12-04T03:16:01;93672.81;;;-2.82;100.00
24610;BME280;12758;47.890;11.694;2023-12-04T03:18:27;93663.81;;;-2.81;100.00
24610;BME280;12758;47.890;11.694;2023-12-04T03:20:54;93658.38;;;-2.91;100.00
24610;BME280;12758;47.890;11.694;2023-12-04T03:23:20;93652.50;;;-3.20;100.00
24610;BME280;12758;47.890;11.694;2023-12-04T03:25:46;93650.06;;;-2.99;100.00
24610;BME280;12758;47.890;11.694;2023-12-04T03:28:12;93646.66;;;-2.95;100.00
24610;BME280;12758;47.890;11.694;2023-12-04T03:30:40;93650.16;;;-2.89;100.00
24610;BME280;12758;47.890;11.694;2023-12-04T03:33:09;93646.16;;;-2.92;100.00
24610;BME280;12758;47.890;11.694;2023-12-04T03:35:35;93653.06;;;-2.91;100.00
24610;BME280;12758;47.890;11.694;2023-12-04T03:38:01;93646.97;;;-2.91;100.00
24610;BME280;12758;47.890;11.694;2023-12-04T03:40:27;93646.56;;;-3.27;100.00
24610;BME280;12758;47.890;11.694;2023-12-04T03:42:53;93653.66;;;-3.11;100.00
24610;BME280;12758;47.890;11.694;2023-12-04T03:45:19;93641.22;;;-3.05;100.00
24610;BME280;12758;47.890;11.694;2023-12-04T03:47:45;93648.16;;;-3.04;100.00
24610;BME280;12758;47.890;11.694;2023-12-04T03:50:12;93638.06;;;-3.02;100.00
24610;BME280;12758;47.890;11.694;2023-12-04T03:52:38;93630.94;;;-3.01;100.00
24610;BME280;12758;47.890;11.694;2023-12-04T03:55:05;93622.72;;;-3.00;100.00
24610;BME280;12758;47.890;11.694;2023-12-04T03:57:31;93619.56;;;-2.97;100.00
24610;BME280;12758;47.890;11.694;2023-12-04T03:59:57;93624.88;;;-2.97;100.00
24610;BME280;12758;47.890;11.694;2023-12-04T04:02:23;93616.41;;;-2.94;100.00
24610;BME280;12758;47.890;11.694;2023-12-04T04:04:49;93613.97;;;-2.95;100.00
24610;BME280;12758;47.890;11.694;2023-12-04T04:07:16;93615.34;;;-2.93;100.00
24610;BME280;12758;47.890;11.694;2023-12-04T04:09:42;93620.41;;;-2.91;100.00
24610;BME280;12758;47.890;11.694;2023-12-04T04:12:08;93622.72;;;-3.00;100.00
24610;BME280;12758;47.890;11.694;2023-12-04T04:14:34;93620.63;;;-2.98;100.00
24610;BME280;12758;47.890;11.694;2023-12-04T04:17:00;93609.50;;;-2.95;100.00
24610;BME280;12758;47.890;11.694;2023-12-04T04:19:26;93622.72;;;-3.00;100.00
24610;BME280;12758;47.890;11.694;2023-12-04T04:21:52;93617.41;;;-3.00;100.00
24610;BME280;12758;47.890;11.694;2023-12-04T04:24:19;93614.50;;;-2.98;100.00
24610;BME280;12758;47.890;11.694;2023-12-04T04:26:45;93619.81;;;-2.98;100.00
24610;BME280;12758;47.890;11.694;2023-12-04T04:29:11;93606.28;;;-2.97;100.00
24610;BME280;12758;47.890;11.694;2023-12-04T04:31:37;93607.88;;;-2.96;100.00
24610;BME280;12758;47.890;11.694;2023-12-04T04:34:03;93610.00;;;-2.98;100.00
24610;BME280;12758;47.890;11.694;2023-12-04T04:36:29;93595.38;;;-3.00;100.00
24610;BME280;12758;47.890;11.694;2023-12-04T04:38:55;93592.16;;;-3.02;100.00
24610;BME280;12758;47.890;11.694;2023-12-04T04:41:22;93601.25;;;-2.98;100.00
24610;BME280;12758;47.890;11.694;2023-12-04T04:43:48;93598.72;;;-3.10;100.00
24610;BME280;12758;47.890;11.694;2023-12-04T04:46:14;93603.28;;;-3.06;100.00
24610;BME280;12758;47.890;11.694;2023-12-04T04:48:40;93590.28;;;-3.02;100.00
24610;BME280;12758;47.890;11.694;2023-12-04T04:51:07;93582.59;;;-3.31;100.00
24610;BME280;12758;47.890;11.694;2023-12-04T04:53:33;93576.34;;;-3.19;100.00
24610;BME280;12758;47.890;11.694;2023-12-04T04:55:59;93577.44;;;-3.15;100.00
24610;BME280;12758;47.890;11.694;2023-12-04T04:58:26;93579.66;;;-3.07;100.00
24610;BME280;12758;47.890;11.694;2023-12-04T05:00:52;93573.78;;;-3.09;100.00
24610;BME280;12758;47.890;11.694;2023-12-04T05:03:18;93574.28;;;-3.12;100.00
24610;BME280;12758;47.890;11.694;2023-12-04T05:05:44;93574.53;;;-3.14;100.00
24610;BME280;12758;47.890;11.694;2023-12-04T05:08:10;93571.13;;;-3.09;100.00
24610;BME280;12758;47.890;11.694;2023-12-04T05:10:38;93571.03;;;-3.19;100.00
24610;BME280;12758;47.890;11.694;2023-12-04T05:13:04;93562.56;;;-3.16;100.00
24610;BME280;12758;47.890;11.694;2023-12-04T05:15:31;93564.03;;;-3.31;100.00
24610;BME280;12758;47.890;11.694;2023-12-04T05:17:57;93564.06;;;-3.25;100.00
24610;BME280;12758;47.890;11.694;2023-12-04T05:20:23;93553.00;;;-3.17;100.00
24610;BME280;12758;47.890;11.694;2023-12-04T05:22:49;93557.19;;;-3.21;100.00
24610;BME280;12758;47.890;11.694;2023-12-04T05:25:15;93554.59;;;-3.16;100.00
24610;BME280;12758;47.890;11.694;2023-12-04T05:27:41;93556.19;;;-3.15;100.00
24610;BME280;12758;47.890;11.694;2023-12-04T05:30:07;93554.50;;;-3.26;100.00
24610;BME280;12758;47.890;11.694;2023-12-04T05:32:34;93558.31;;;-3.17;100.00
24610;BME280;12758;47.890;11.694;2023-12-04T05:35:00;93549.69;;;-3.30;100.00
24610;BME280;12758;47.890;11.694;2023-12-04T05:37:26;93547.41;;;-3.21;100.00
24610;BME280;12758;47.890;11.694;2023-12-04T05:39:52;93547.69;;;-3.17;100.00
24610;BME280;12758;47.890;11.694;2023-12-04T05:42:18;93550.84;;;-3.20;100.00
24610;BME280;12758;47.890;11.694;2023-12-04T05:44:44;93545.56;;;-3.15;100.00
24610;BME280;12758;47.890;11.694;2023-12-04T05:47:10;93549.00;;;-3.20;100.00
24610;BME280;12758;47.890;11.694;2023-12-04T05:49:37;93546.53;;;-3.26;100.00
24610;BME280;12758;47.890;11.694;2023-12-04T05:52:03;93549.22;;;-3.48;100.00
24610;BME280;12758;47.890;11.694;2023-12-04T05:54:29;93538.00;;;-3.34;100.00
24610;BME280;12758;47.890;11.694;2023-12-04T05:56:55;93539.13;;;-3.24;100.00
24610;BME280;12758;47.890;11.694;2023-12-04T05:59:21;93540.06;;;-3.36;100.00
24610;BME280;12758;47.890;11.694;2023-12-04T06:01:47;93543.88;;;-3.26;100.00
24610;BME280;12758;47.890;11.694;2023-12-04T06:04:14;93531.84;;;-3.34;100.00
24610;BME280;12758;47.890;11.694;2023-12-04T06:06:40;93528.28;;;-3.23;100.00
24610;BME280;12758;47.890;11.694;2023-12-04T06:09:06;93534.38;;;-3.22;100.00
24610;BME280;12758;47.890;11.694;2023-12-04T06:11:32;93525.84;;;-3.24;100.00
24610;BME280;12758;47.890;11.694;2023-12-04T06:13:58;93528.56;;;-3.19;100.00
24610;BME280;12758;47.890;11.694;2023-12-04T06:16:24;93523.25;;;-3.19;100.00
24610;BME280;12758;47.890;11.694;2023-12-04T06:18:50;93526.22;;;-3.43;100.00
24610;BME280;12758;47.890;11.694;2023-12-04T06:21:16;93523.56;;;-3.43;100.00
24610;BME280;12758;47.890;11.694;2023-12-04T06:23:43;93523.66;;;-3.33;100.00
24610;BME280;12758;47.890;11.694;2023-12-04T06:26:11;93510.97;;;-3.31;100.00
24610;BME280;12758;47.890;11.694;2023-12-04T06:28:38;93519.44;;;-3.29;100.00
24610;BME280;12758;47.890;11.694;2023-12-04T06:31:06;93514.13;;;-3.29;100.00
24610;BME280;12758;47.890;11.694;2023-12-04T06:33:33;93504.63;;;-3.24;100.00
24610;BME280;12758;47.890;11.694;2023-12-04T06:35:59;93507.84;;;-3.22;100.00
24610;BME280;12758;47.890;11.694;2023-12-04T06:38:26;93501.94;;;-3.30;100.00
24610;BME280;12758;47.890;11.694;2023-12-04T06:40:53;93498.44;;;-3.35;100.00
24610;BME280;12758;47.890;11.694;2023-12-04T06:43:20;93488.81;;;-3.41;100.00
24610;BME280;12758;47.890;11.694;2023-12-04T06:45:47;93492.72;;;-3.49;100.00
24610;BME280;12758;47.890;11.694;2023-12-04T06:48:13;93489.50;;;-3.51;100.00
24610;BME280;12758;47.890;11.694;2023-12-04T06:50:41;93490.81;;;-3.54;100.00
24610;BME280;12758;47.890;11.694;2023-12-04T06:53:07;93487.09;;;-3.80;100.00
24610;BME280;12758;47.890;11.694;2023-12-04T06:55:33;93483.84;;;-4.70;100.00
24610;BME280;12758;47.890;11.694;2023-12-04T06:57:59;93483.03;;;-4.31;100.00
24610;BME280;12758;47.890;11.694;2023-12-04T07:00:25;93480.31;;;-3.92;100.00
24610;BME280;12758;47.890;11.694;2023-12-04T07:02:51;93478.72;;;-3.71;100.00
24610;BME280;12758;47.890;11.694;2023-12-04T07:05:19;93480.91;;;-3.63;100.00
24610;BME280;12758;47.890;11.694;2023-12-04T07:07:45;93480.91;;;-3.63;100.00
24610;BME280;12758;47.890;11.694;2023-12-04T07:10:11;93487.69;;;-3.72;100.00
24610;BME280;12758;47.890;11.694;2023-12-04T07:12:40;93489.81;;;-3.75;100.00
24610;BME280;12758;47.890;11.694;2023-12-04T07:15:08;93469.03;;;-4.49;100.00
24610;BME280;12758;47.890;11.694;2023-12-04T07:17:34;93468.50;;;-4.29;100.00
24610;BME280;12758;47.890;11.694;2023-12-04T07:20:00;93465.97;;;-3.96;100.00
24610;BME280;12758;47.890;11.694;2023-12-04T07:22:26;93456.06;;;-3.79;100.00
24610;BME280;12758;47.890;11.694;2023-12-04T07:24:52;93455.78;;;-3.83;100.00
24610;BME280;12758;47.890;11.694;2023-12-04T07:27:18;93453.50;;;-3.74;100.00
24610;BME280;12758;47.890;11.694;2023-12-04T07:29:44;93449.69;;;-4.05;100.00
24610;BME280;12758;47.890;11.694;2023-12-04T07:32:11;93438.88;;;-3.77;100.00
24610;BME280;12758;47.890;11.694;2023-12-04T07:34:37;93432.56;;;-3.70;100.00
24610;BME280;12758;47.890;11.694;2023-12-04T07:37:03;93427.56;;;-3.67;100.00
24610;BME280;12758;47.890;11.694;2023-12-04T07:39:29;93425.84;;;-3.56;100.00
24610;BME280;12758;47.890;11.694;2023-12-04T07:41:55;93417.91;;;-3.51;100.00
24610;BME280;12758;47.890;11.694;2023-12-04T07:44:21;93420.06;;;-3.48;100.00
24610;BME280;12758;47.890;11.694;2023-12-04T07:46:47;93417.47;;;-3.43;100.00
24610;BME280;12758;47.890;11.694;2023-12-04T07:49:14;93417.47;;;-3.43;100.00
24610;BME280;12758;47.890;11.694;2023-12-04T07:51:40;93408.94;;;-3.45;100.00
24610;BME280;12758;47.890;11.694;2023-12-04T07:54:06;93407.34;;;-3.46;100.00
24610;BME280;12758;47.890;11.694;2023-12-04T07:56:32;93416.94;;;-3.40;100.00
24610;BME280;12758;47.890;11.694;2023-12-04T07:58:58;93412.66;;;-3.46;100.00
24610;BME280;12758;47.890;11.694;2023-12-04T08:01:24;93410.03;;;-3.41;100.00
24610;BME280;12758;47.890;11.694;2023-12-04T08:03:50;93411.66;;;-3.40;100.00
24610;BME280;12758;47.890;11.694;2023-12-04T08:06:16;93426.28;;;-3.64;100.00
24610;BME280;12758;47.890;11.694;2023-12-04T08:08:44;93416.81;;;-3.55;100.00
24610;BME280;12758;47.890;11.694;2023-12-04T08:11:10;93414.16;;;-3.55;100.00
24610;BME280;12758;47.890;11.694;2023-12-04T08:13:38;93416.91;;;-3.45;100.00
24610;BME280;12758;47.890;11.694;2023-12-04T08:16:05;93417.16;;;-3.73;100.00
24610;BME280;12758;47.890;11.694;2023-12-04T08:18:31;93425.84;;;-3.51;100.00
24610;BME280;12758;47.890;11.694;2023-12-04T08:20:59;93425.84;;;-3.51;100.00
24610;BME280;12758;47.890;11.694;2023-12-04T08:23:26;93423.22;;;-3.51;100.00
24610;BME280;12758;47.890;11.694;2023-12-04T08:25:52;93416.84;;;-3.50;100.00
24610;BME280;12758;47.890;11.694;2023-12-04T08:28:18;93407.63;;;-3.42;100.00
24610;BME280;12758;47.890;11.694;2023-12-04T08:30:44;93408.94;;;-3.45;100.00
24610;BME280;12758;47.890;11.694;2023-12-04T08:33:10;93407.13;;;-3.39;100.00
24610;BME280;12758;47.890;11.694;2023-12-04T08:35:36;93409.03;;;-3.35;100.00
24610;BME280;12758;47.890;11.694;2023-12-04T08:38:02;93397.31;;;-3.39;100.00
24610;BME280;12758;47.890;11.694;2023-12-04T08:40:29;93402.69;;;-3.34;100.00
24610;BME280;12758;47.890;11.694;2023-12-04T08:42:55;93406.22;;;-3.50;100.00
24610;BME280;12758;47.890;11.694;2023-12-04T08:45:21;93404.72;;;-3.41;100.00
24610;BME280;12758;47.890;11.694;2023-12-04T08:47:47;93404.19;;;-3.43;100.00
24610;BME280;12758;47.890;11.694;2023-12-04T08:50:15;93397.78;;;-3.47;100.00
24610;BME280;12758;47.890;11.694;2023-12-04T08:52:41;93407.44;;;-3.36;100.00
24610;BME280;12758;47.890;11.694;2023-12-04T08:55:07;93412.22;;;-3.33;100.00
24610;BME280;12758;47.890;11.694;2023-12-04T08:57:34;93417.03;;;-3.30;100.00
24610;BME280;12758;47.890;11.694;2023-12-04T09:00:00;93408.56;;;-3.26;100.00
24610;BME280;12758;47.890;11.694;2023-12-04T09:02:26;93406.06;;;-3.70;100.00
24610;BME280;12758;47.890;11.694;2023-12-04T09:04:52;93409.00;;;-3.67;100.00
24610;BME280;12758;47.890;11.694;2023-12-04T09:07:18;93405.50;;;-3.45;100.00
24610;BME280;12758;47.890;11.694;2023-12-04T09:09:44;93402.88;;;-3.40;100.00
24610;BME280;12758;47.890;11.694;2023-12-04T09:12:11;93406.91;;;-3.33;100.00
24610;BME280;12758;47.890;11.694;2023-12-04T09:14:38;93410.13;;;-3.31;100.00
24610;BME280;12758;47.890;11.694;2023-12-04T09:17:04;93399.00;;;-3.28;100.00
24610;BME280;12758;47.890;11.694;2023-12-04T09:19:30;93399.53;;;-3.31;100.00
24610;BME280;12758;47.890;11.694;2023-12-04T09:21:56;93407.50;;;-3.25;100.00
24610;BME280;12758;47.890;11.694;2023-12-04T09:24:23;93406.72;;;-3.26;100.00
24610;BME280;12758;47.890;11.694;2023-12-04T09:26:49;93398.47;;;-3.24;100.00
24610;BME280;12758;47.890;11.694;2023-12-04T09:29:15;93403.00;;;-3.25;100.00
24610;BME280;12758;47.890;11.694;2023-12-04T09:31:42;93402.41;;;-3.32;100.00
24610;BME280;12758;47.890;11.694;2023-12-04T09:34:09;93418.13;;;-3.25;100.00
24610;BME280;12758;47.890;11.694;2023-12-04T09:36:35;93403.56;;;-3.23;100.00
24610;BME280;12758;47.890;11.694;2023-12-04T09:39:01;93398.13;;;-3.38;100.00
24610;BME280;12758;47.890;11.694;2023-12-04T09:41:27;93394.09;;;-3.41;100.00
24610;BME280;12758;47.890;11.694;2023-12-04T09:43:53;93393.41;;;-3.31;100.00
24610;BME280;12758;47.890;11.694;2023-12-04T09:46:20;93396.91;;;-3.25;100.00
24610;BME280;12758;47.890;11.694;2023-12-04T09:48:46;93393.19;;;-3.24;100.00
24610;BME280;12758;47.890;11.694;2023-12-04T09:51:12;93393.72;;;-3.22;100.00
24610;BME280;12758;47.890;11.694;2023-12-04T09:53:39;93378.34;;;-3.58;100.00
24610;BME280;12758;47.890;11.694;2023-12-04T09:56:07;93377.03;;;-3.55;100.00
24610;BME280;12758;47.890;11.694;2023-12-04T09:58:34;93382.03;;;-3.86;100.00
24610;BME280;12758;47.890;11.694;2023-12-04T10:01:05;93369.44;;;-3.73;100.00
24610;BME280;12758;47.890;11.694;2023-12-04T10:03:32;93373.19;;;-3.69;100.00
24610;BME280;12758;47.890;11.694;2023-12-04T10:05:59;93365.88;;;-3.57;100.00
24610;BME280;12758;47.890;11.694;2023-12-04T10:08:25;93376.03;;;-3.76;100.00
24610;BME280;12758;47.890;11.694;2023-12-04T10:10:51;93363.63;;;-3.70;100.00
24610;BME280;12758;47.890;11.694;2023-12-04T10:13:17;93363.06;;;-3.72;100.00
24610;BME280;12758;47.890;11.694;2023-12-04T10:15:46;93358.09;;;-3.96;100.00
24610;BME280;12758;47.890;11.694;2023-12-04T10:18:25;93354.03;;;-3.77;100.00
24610;BME280;12758;47.890;11.694;2023-12-04T10:20:52;93348.72;;;-3.82;100.00
24610;BME280;12758;47.890;11.694;2023-12-04T10:23:19;93344.56;;;-3.67;100.00
24610;BME280;12758;47.890;11.694;2023-12-04T10:25:45;93347.88;;;-3.50;100.00
24610;BME280;12758;47.890;11.694;2023-12-04T10:28:15;93343.13;;;-3.53;100.00
24610;BME280;12758;47.890;11.694;2023-12-04T10:30:41;93344.13;;;-3.59;100.00
24610;BME280;12758;47.890;11.694;2023-12-04T10:33:08;93334.59;;;-3.55;100.00
24610;BME280;12758;47.890;11.694;2023-12-04T10:35:36;93330.94;;;-3.44;100.00
24610;BME280;12758;47.890;11.694;2023-12-04T10:38:02;93326.75;;;-3.40;100.00
24610;BME280;12758;47.890;11.694;2023-12-04T10:40:31;93332.38;;;-3.31;100.00
24610;BME280;12758;47.890;11.694;2023-12-04T10:43:15;93332.50;;;-3.53;100.00
24610;BME280;12758;47.890;11.694;2023-12-04T10:45:42;93326.09;;;-3.57;100.00
24610;BME280;12758;47.890;11.694;2023-12-04T10:48:09;93324.09;;;-3.40;100.00
24610;BME280;12758;47.890;11.694;2023-12-04T10:50:36;93315.63;;;-3.37;100.00
24610;BME280;12758;47.890;11.694;2023-12-04T10:53:03;93312.16;;;-3.37;100.00
24610;BME280;12758;47.890;11.694;2023-12-04T10:55:30;93308.19;;;-3.40;100.00
24610;BME280;12758;47.890;11.694;2023-12-04T10:57:57;93308.09;;;-3.50;100.00
24610;BME280;12758;47.890;11.694;2023-12-04T11:00:23;93299.13;;;-3.44;100.00
24610;BME280;12758;47.890;11.694;2023-12-04T11:02:49;93287.22;;;-3.41;100.00
24610;BME280;12758;47.890;11.694;2023-12-04T11:05:20;93288.78;;;-3.45;100.00
24610;BME280;12758;47.890;11.694;2023-12-04T11:07:51;93288.00;;;-3.41;100.00
24610;BME280;12758;47.890;11.694;2023-12-04T11:10:20;93278.41;;;-3.47;100.00
24610;BME280;12758;47.890;11.694;2023-12-04T11:12:47;93281.28;;;-3.54;100.00
24610;BME280;12758;47.890;11.694;2023-12-04T11:15:17;93272.59;;;-3.49;100.00
24610;BME280;12758;47.890;11.694;2023-12-04T11:17:46;93262.47;;;-3.52;100.00
24610;BME280;12758;47.890;11.694;2023-12-04T11:20:16;93253.50;;;-3.46;100.00
24610;BME280;12758;47.890;11.694;2023-12-04T11:22:44;93255.66;;;-3.38;100.00
24610;BME280;12758;47.890;11.694;2023-12-04T11:25:11;93247.94;;;-3.44;100.00
24610;BME280;12758;47.890;11.694;2023-12-04T11:27:38;93234.38;;;-3.48;100.00
24610;BME280;12758;47.890;11.694;2023-12-04T11:30:06;93232.25;;;-3.51;100.00
24610;BME280;12758;47.890;11.694;2023-12-04T11:32:43;93231.25;;;-3.40;100.00
24610;BME280;12758;47.890;11.694;2023-12-04T11:35:12;93225.97;;;-3.35;100.00
24610;BME280;12758;47.890;11.694;2023-12-04T11:37:39;93223.31;;;-3.35;100.00
24610;BME280;12758;47.890;11.694;2023-12-04T11:40:07;93223.31;;;-3.40;100.00
24610;BME280;12758;47.890;11.694;2023-12-04T11:42:33;93226.53;;;-3.33;100.00
24610;BME280;12758;47.890;11.694;2023-12-04T11:44:59;93220.94;;;-3.36;100.00
24610;BME280;12758;47.890;11.694;2023-12-04T11:47:28;93218.53;;;-3.38;100.00
24610;BME280;12758;47.890;11.694;2023-12-04T11:49:54;93210.06;;;-3.35;100.00
24610;BME280;12758;47.890;11.694;2023-12-04T11:52:32;93206.38;;;-3.34;100.00
24610;BME280;12758;47.890;11.694;2023-12-04T11:54:59;93207.91;;;-3.38;100.00
24610;BME280;12758;47.890;11.694;2023-12-04T11:57:26;93211.66;;;-3.34;100.00
24610;BME280;12758;47.890;11.694;2023-12-04T12:00:08;93218.00;;;-3.35;100.00
24610;BME280;12758;47.890;11.694;2023-12-04T12:02:34;93205.06;;;-3.26;100.00
24610;BME280;12758;47.890;11.694;2023-12-04T12:05:00;93206.13;;;-3.22;100.00
24610;BME280;12758;47.890;11.694;2023-12-04T12:07:27;93211.19;;;-3.15;100.00
24610;BME280;12758;47.890;11.694;2023-12-04T12:09:53;93208.03;;;-3.12;100.00
24610;BME280;12758;47.890;11.694;2023-12-04T12:12:20;93207.00;;;-3.11;100.00
24610;BME280;12758;47.890;11.694;2023-12-04T12:14:47;93213.88;;;-3.05;100.00
24610;BME280;12758;47.890;11.694;2023-12-04T12:17:13;93217.63;;;-3.01;100.00
24610;BME280;12758;47.890;11.694;2023-12-04T12:19:40;93221.88;;;-3.00;100.00
24610;BME280;12758;47.890;11.694;2023-12-04T12:22:06;93221.84;;;-3.05;100.00
24610;BME280;12758;47.890;11.694;2023-12-04T12:24:32;93229.81;;;-3.05;100.00
24610;BME280;12758;47.890;11.694;2023-12-04T12:26:58;93221.31;;;-3.07;100.00
24610;BME280;12758;47.890;11.694;2023-12-04T12:29:24;93212.84;;;-3.04;100.00
24610;BME280;12758;47.890;11.694;2023-12-04T12:31:50;93208.56;;;-3.05;100.00
24610;BME280;12758;47.890;11.694;2023-12-04T12:34:17;93199.81;;;-3.06;100.00
24610;BME280;12758;47.890;11.694;2023-12-04T12:36:43;93186.81;;;-3.07;100.00